createdAt,value
2017-08-12T00:00:39.071Z,9.20
2017-08-12T00:03:36.594Z,9.47
2017-08-12T00:06:34.087Z,9.67
2017-08-12T00:09:31.493Z,9.33
2017-08-12T00:12:29.066Z,9.10
2017-08-12T00:15:26.485Z,9.70
2017-08-12T00:18:24.041Z,9.30
2017-08-12T00:21:22.563Z,8.93
2017-08-12T00:24:20.165Z,10.10
2017-08-12T00:27:17.631Z,10.00
2017-08-12T00:30:15.110Z,10.40
2017-08-12T00:33:12.559Z,10.23
2017-08-12T00:36:09.835Z,8.60
2017-08-12T00:39:07.254Z,9.37
2017-08-12T00:42:04.903Z,9.20
2017-08-12T00:45:02.263Z,9.50
2017-08-12T00:47:59.711Z,9.00
2017-08-12T00:50:57.186Z,8.70
2017-08-12T00:53:55.691Z,8.33
2017-08-12T00:56:53.253Z,8.30
2017-08-12T00:59:50.655Z,8.70
2017-08-12T01:02:48.066Z,9.17
2017-08-12T01:05:45.531Z,8.10
2017-08-12T01:08:42.870Z,8.77
2017-08-12T01:11:40.547Z,8.47
2017-08-12T01:14:38.062Z,8.37
2017-08-12T01:17:35.554Z,8.60
2017-08-12T01:20:32.971Z,7.43
2017-08-12T01:23:30.498Z,8.00
2017-08-12T01:26:27.974Z,8.27
2017-08-12T01:29:25.358Z,8.10
2017-08-12T01:32:23.950Z,7.57
2017-08-12T01:35:26.684Z,8.40
2017-08-12T01:38:23.990Z,7.90
2017-08-12T01:41:21.566Z,8.23
2017-08-12T01:44:19.243Z,7.90
2017-08-12T01:47:22.711Z,7.77
2017-08-12T01:50:26.058Z,7.77
2017-08-12T01:53:23.522Z,8.10
2017-08-12T01:56:22.029Z,8.33
2017-08-12T01:59:19.585Z,7.97
2017-08-12T02:02:16.921Z,8.67
2017-08-12T02:05:14.141Z,8.47
2017-08-12T02:08:11.579Z,8.50
2017-08-12T02:11:09.031Z,7.43
2017-08-12T02:14:06.371Z,8.43
2017-08-12T02:17:03.799Z,8.33
2017-08-12T02:20:01.251Z,8.53
2017-08-12T02:22:59.705Z,7.90
2017-08-12T02:25:57.142Z,8.10
2017-08-12T02:28:54.662Z,7.90
2017-08-12T02:31:52.034Z,8.13
2017-08-12T02:34:49.665Z,7.23
2017-08-12T02:37:47.099Z,8.30
2017-08-12T02:40:44.763Z,8.00
2017-08-12T02:43:42.282Z,8.20
2017-08-12T02:46:40.778Z,8.60
2017-08-12T02:49:38.313Z,7.63
2017-08-12T02:52:35.828Z,7.57
2017-08-12T02:55:34.351Z,7.53
2017-08-12T02:58:31.882Z,7.00
2017-08-12T03:01:29.204Z,7.53
2017-08-12T03:04:26.579Z,6.50
2017-08-12T03:07:24.183Z,6.20
2017-08-12T03:10:21.778Z,6.50
2017-08-12T03:13:19.210Z,5.60
2017-08-12T03:16:16.666Z,6.20
2017-08-12T03:19:14.270Z,6.40
2017-08-12T03:24:48.066Z,6.10
2017-08-12T03:27:45.722Z,5.83
2017-08-12T03:30:43.203Z,5.70
2017-08-12T03:33:40.675Z,6.60
2017-08-12T03:36:38.222Z,6.00
2017-08-12T03:39:35.727Z,5.90
2017-08-12T03:42:33.291Z,6.80
2017-08-12T03:45:30.821Z,5.50
2017-08-12T03:48:29.195Z,7.23
2017-08-12T03:51:26.655Z,6.60
2017-08-12T03:54:24.102Z,7.13
2017-08-12T03:57:21.662Z,6.57
2017-08-12T04:00:19.090Z,7.20
2017-08-12T04:03:16.610Z,7.43
2017-08-12T04:06:14.014Z,7.43
2017-08-12T04:09:11.579Z,7.47
2017-08-12T04:12:14.017Z,6.80
2017-08-12T04:15:11.643Z,6.80
2017-08-12T04:18:09.163Z,7.07
2017-08-12T04:21:06.778Z,6.40
2017-08-12T04:24:05.322Z,6.30
2017-08-12T04:27:02.829Z,6.37
2017-08-12T04:30:00.357Z,6.10
2017-08-12T04:32:57.942Z,6.07
2017-08-12T04:35:55.454Z,6.27
2017-08-12T04:38:52.738Z,6.80
2017-08-12T04:41:50.137Z,6.53
2017-08-12T04:44:47.726Z,6.00
2017-08-12T04:47:45.229Z,5.63
2017-08-12T04:50:42.615Z,6.23
2017-08-12T04:53:41.132Z,5.43
2017-08-12T04:56:38.479Z,5.70
2017-08-12T04:59:36.085Z,5.20
2017-08-12T05:02:33.662Z,4.70
2017-08-12T05:05:31.187Z,5.30
2017-08-12T05:08:28.742Z,4.70
2017-08-12T05:11:26.251Z,4.97
2017-08-12T05:14:24.670Z,5.13
2017-08-12T05:17:22.294Z,5.57
2017-08-12T05:20:19.743Z,4.70
2017-08-12T05:23:17.179Z,4.80
2017-08-12T05:26:14.619Z,5.37
2017-08-12T05:29:12.211Z,4.80
2017-08-12T05:32:10.714Z,5.10
2017-08-12T05:35:08.259Z,4.43
2017-08-12T05:38:08.779Z,4.57
2017-08-12T05:41:06.186Z,4.10
2017-08-12T05:44:04.682Z,4.27
2017-08-12T05:47:02.249Z,3.67
2017-08-12T05:50:02.733Z,3.77
2017-08-12T05:53:00.302Z,3.30
2017-08-12T05:55:57.852Z,3.50
2017-08-12T05:58:55.504Z,3.50
2017-08-12T06:01:52.998Z,3.77
2017-08-12T06:04:50.500Z,3.33
2017-08-12T06:07:47.896Z,3.47
2017-08-12T06:10:45.370Z,3.87
2017-08-12T06:13:42.683Z,3.90
2017-08-12T06:16:40.164Z,4.13
2017-08-12T06:19:37.720Z,4.57
2017-08-12T06:22:35.388Z,4.60
2017-08-12T06:25:33.795Z,4.20
2017-08-12T06:28:32.341Z,4.60
2017-08-12T06:31:29.824Z,5.10
2017-08-12T06:34:27.229Z,4.77
2017-08-12T06:37:24.625Z,4.93
2017-08-12T06:40:22.044Z,4.43
2017-08-12T06:43:19.679Z,4.17
2017-08-12T06:46:16.980Z,4.47
2017-08-12T06:49:14.590Z,4.73
2017-08-12T06:52:12.019Z,4.13
2017-08-12T06:55:12.477Z,4.07
2017-08-12T06:58:12.866Z,4.70
2017-08-12T07:01:11.386Z,4.80
2017-08-12T07:04:11.878Z,4.70
2017-08-12T07:07:09.445Z,4.67
2017-08-12T07:10:06.991Z,4.50
2017-08-12T07:13:04.495Z,5.27
2017-08-12T07:16:01.917Z,4.87
2017-08-12T07:19:00.453Z,5.40
2017-08-12T07:21:57.895Z,4.37
2017-08-12T07:24:55.311Z,4.53
2017-08-12T07:27:52.927Z,5.30
2017-08-12T07:30:50.414Z,4.60
2017-08-12T07:33:47.923Z,4.80
2017-08-12T07:36:45.293Z,5.13
2017-08-12T07:39:42.714Z,4.67
2017-08-12T07:42:40.246Z,4.93
2017-08-12T07:45:38.723Z,4.90
2017-08-12T07:48:36.254Z,5.10
2017-08-12T07:51:33.522Z,4.80
2017-08-12T07:54:31.129Z,4.93
2017-08-12T07:57:28.685Z,4.90
2017-08-12T08:00:26.259Z,4.37
2017-08-12T08:03:23.700Z,5.17
2017-08-12T08:06:21.134Z,4.80
2017-08-12T08:09:18.517Z,5.20
2017-08-12T08:12:15.919Z,5.20
2017-08-12T08:15:16.962Z,5.30
2017-08-12T08:21:26.435Z,4.97
2017-08-12T08:24:23.989Z,4.83
2017-08-12T08:27:27.465Z,5.30
2017-08-12T08:30:28.037Z,5.57
2017-08-12T08:33:25.388Z,5.00
2017-08-12T08:36:23.968Z,5.00
2017-08-12T08:39:24.522Z,5.07
2017-08-12T08:42:22.006Z,5.13
2017-08-12T08:45:19.564Z,5.00
2017-08-12T08:48:21.122Z,5.37
2017-08-12T08:51:19.648Z,4.90
2017-08-12T08:54:17.062Z,4.40
2017-08-12T08:57:14.608Z,4.87
2017-08-12T09:00:12.238Z,5.17
2017-08-12T09:03:09.782Z,5.07
2017-08-12T09:06:07.220Z,4.73
2017-08-12T09:09:04.869Z,5.87
2017-08-12T09:12:02.451Z,5.40
2017-08-12T09:15:01.029Z,5.37
2017-08-12T09:18:01.570Z,5.80
2017-08-12T09:21:02.101Z,5.57
2017-08-12T09:24:00.524Z,5.90
2017-08-12T09:27:02.122Z,5.73
2017-08-12T09:30:14.731Z,5.20
2017-08-12T09:33:13.157Z,5.77
2017-08-12T09:36:10.634Z,4.90
2017-08-12T09:39:11.146Z,5.43
2017-08-12T09:42:11.752Z,5.70
2017-08-12T09:45:09.355Z,5.90
2017-08-12T09:48:08.782Z,6.50
2017-08-12T09:51:07.255Z,6.27
2017-08-12T09:54:06.870Z,7.10
2017-08-12T09:57:04.259Z,6.63
2017-08-12T10:00:06.771Z,7.07
2017-08-12T10:03:04.361Z,6.57
2017-08-12T10:06:01.928Z,6.30
2017-08-12T10:09:00.236Z,6.60
2017-08-12T10:12:01.803Z,6.53
2017-08-12T10:14:59.295Z,7.17
2017-08-12T10:17:56.771Z,7.90
2017-08-12T10:20:55.209Z,7.30
2017-08-12T10:23:53.626Z,7.47
2017-08-12T10:26:53.058Z,7.50
2017-08-12T10:29:50.538Z,7.27
2017-08-12T10:32:47.908Z,6.73
2017-08-12T10:35:46.424Z,6.20
2017-08-12T10:38:45.866Z,5.83
2017-08-12T10:41:49.365Z,5.57
2017-08-12T10:44:49.865Z,6.40
2017-08-12T10:47:50.480Z,6.47
2017-08-12T10:50:53.029Z,6.07
2017-08-12T10:53:50.455Z,6.20
2017-08-12T10:56:47.951Z,5.77
2017-08-12T10:59:45.327Z,5.37
2017-08-12T11:02:42.719Z,5.47
2017-08-12T11:05:40.236Z,5.30
2017-08-12T11:08:37.899Z,5.40
2017-08-12T11:11:36.432Z,4.20
2017-08-12T11:14:33.984Z,5.23
2017-08-12T11:17:31.578Z,4.80
2017-08-12T11:20:31.014Z,4.00
2017-08-12T11:23:33.562Z,4.20
2017-08-12T11:26:31.044Z,3.93
2017-08-12T11:29:30.575Z,4.40
2017-08-12T11:32:29.975Z,4.03
2017-08-12T11:35:28.555Z,4.60
2017-08-12T11:38:26.057Z,4.73
2017-08-12T11:41:23.700Z,3.50
2017-08-12T11:44:24.122Z,4.20
2017-08-12T11:47:23.482Z,3.47
2017-08-12T11:50:21.081Z,4.20
2017-08-12T11:53:20.464Z,3.70
2017-08-12T11:56:20.084Z,3.43
2017-08-12T11:59:17.571Z,4.40
2017-08-12T12:02:16.231Z,4.50
2017-08-12T12:05:14.573Z,3.73
2017-08-12T12:08:17.179Z,4.23
2017-08-12T12:11:19.623Z,3.90
2017-08-12T12:14:18.160Z,3.60
2017-08-12T12:17:22.736Z,3.57
2017-08-12T12:20:20.332Z,4.00
2017-08-12T12:23:17.984Z,3.77
2017-08-12T12:26:15.410Z,3.80
2017-08-12T12:29:13.022Z,3.43
2017-08-12T12:32:22.652Z,4.30
2017-08-12T12:35:20.292Z,3.70
2017-08-12T12:38:33.043Z,4.23
2017-08-12T12:41:33.450Z,4.10
2017-08-12T12:44:31.983Z,3.17
2017-08-12T12:47:38.513Z,2.77
2017-08-12T12:50:43.013Z,3.10
2017-08-12T12:53:40.576Z,3.00
2017-08-12T12:56:38.271Z,2.63
2017-08-12T12:59:35.684Z,2.70
2017-08-12T13:02:33.235Z,2.80
2017-08-12T13:05:30.871Z,2.60
2017-08-12T13:08:28.249Z,3.17
2017-08-12T13:11:25.658Z,2.90
2017-08-12T13:14:23.153Z,3.13
2017-08-12T13:17:20.546Z,2.90
2017-08-12T13:20:18.049Z,2.97
2017-08-12T13:23:15.562Z,2.83
2017-08-12T13:26:14.134Z,3.00
2017-08-12T13:29:12.507Z,2.83
2017-08-12T13:32:10.075Z,2.63
2017-08-12T13:35:07.515Z,2.70
2017-08-12T13:38:04.975Z,2.40
2017-08-12T13:41:02.543Z,1.90
2017-08-12T13:44:00.959Z,1.70
2017-08-12T13:46:58.510Z,2.20
2017-08-12T13:49:56.919Z,1.83
2017-08-12T13:52:54.526Z,2.10
2017-08-12T13:55:51.967Z,2.00
2017-08-12T13:58:49.384Z,2.40
2017-08-12T14:01:46.823Z,1.70
2017-08-12T14:04:44.453Z,1.60
2017-08-12T14:07:42.041Z,1.90
2017-08-12T14:10:39.399Z,2.00
2017-08-12T14:13:36.794Z,1.83
2017-08-12T14:16:34.270Z,2.30
2017-08-12T14:19:31.846Z,2.03
2017-08-12T14:22:29.342Z,1.60
2017-08-12T14:25:26.784Z,2.17
2017-08-12T14:28:24.152Z,2.10
2017-08-12T14:31:21.639Z,2.13
2017-08-12T14:34:19.128Z,1.80
2017-08-12T14:37:24.820Z,1.83
2017-08-12T14:40:25.446Z,1.47
2017-08-12T14:43:31.215Z,1.40
2017-08-12T14:46:28.542Z,1.83
2017-08-12T14:49:25.963Z,2.00
2017-08-12T14:52:23.355Z,2.43
2017-08-12T14:55:23.811Z,1.63
2017-08-12T14:58:21.244Z,1.80
2017-08-12T15:01:18.806Z,1.73
2017-08-12T15:04:16.270Z,1.87
2017-08-12T15:07:13.721Z,1.50
2017-08-12T15:10:11.042Z,1.70
2017-08-12T15:13:08.517Z,1.60
2017-08-12T15:16:07.035Z,1.93
2017-08-12T15:19:04.459Z,1.40
2017-08-12T15:22:01.971Z,1.50
2017-08-12T15:25:00.473Z,1.53
2017-08-12T15:27:58.050Z,1.53
2017-08-12T15:30:55.557Z,1.80
2017-08-12T15:33:53.171Z,1.60
2017-08-12T15:36:50.814Z,1.87
2017-08-12T15:39:49.444Z,1.60
2017-08-12T15:42:46.999Z,1.27
2017-08-12T15:45:44.411Z,1.70
2017-08-12T15:48:41.868Z,1.50
2017-08-12T15:51:39.413Z,1.60
2017-08-12T15:54:37.038Z,1.80
2017-08-12T15:57:34.437Z,1.90
2017-08-12T16:00:32.738Z,1.90
2017-08-12T16:03:30.151Z,1.47
2017-08-12T16:06:28.802Z,1.60
2017-08-12T16:09:26.300Z,1.50
2017-08-12T16:12:23.995Z,1.70
2017-08-12T16:15:21.638Z,1.30
2017-08-12T16:18:19.034Z,1.50
2017-08-12T16:21:16.565Z,1.27
2017-08-12T16:24:14.064Z,1.73
2017-08-12T16:27:11.595Z,1.50
2017-08-12T16:30:09.039Z,1.70
2017-08-12T16:33:06.485Z,1.53
2017-08-12T16:36:03.886Z,1.70
2017-08-12T16:39:01.369Z,1.90
2017-08-12T16:41:58.884Z,1.90
2017-08-12T16:44:56.364Z,1.90
2017-08-12T16:47:53.822Z,2.27
2017-08-12T16:50:51.403Z,1.80
2017-08-12T16:53:48.884Z,1.63
2017-08-12T16:56:47.258Z,1.93
2017-08-12T16:59:45.774Z,1.47
2017-08-12T17:02:43.396Z,1.90
2017-08-12T17:05:40.770Z,1.80
2017-08-12T17:08:38.665Z,2.10
2017-08-12T17:11:35.878Z,1.93
2017-08-12T17:14:33.257Z,1.90
2017-08-12T17:17:30.819Z,2.43
2017-08-12T17:20:28.390Z,1.93
2017-08-12T17:23:25.726Z,1.80
2017-08-12T17:26:23.232Z,2.00
2017-08-12T17:29:20.727Z,2.03
2017-08-12T17:32:18.379Z,2.33
2017-08-12T17:35:16.036Z,2.03
2017-08-12T17:38:13.535Z,2.20
2017-08-12T17:41:10.985Z,2.07
2017-08-12T17:44:08.422Z,2.40
2017-08-12T17:47:06.020Z,2.37
2017-08-12T17:50:03.539Z,2.20
2017-08-12T17:53:01.080Z,2.13
2017-08-12T17:55:58.735Z,2.20
2017-08-12T17:58:56.287Z,1.93
2017-08-12T18:01:53.801Z,1.77
2017-08-12T18:04:51.438Z,2.10
2017-08-12T18:07:48.912Z,2.43
2017-08-12T18:10:46.319Z,2.70
2017-08-12T18:13:43.731Z,2.37
2017-08-12T18:16:41.117Z,2.60
2017-08-12T18:19:38.426Z,2.00
2017-08-12T18:22:35.982Z,2.57
2017-08-12T18:25:33.355Z,2.60
2017-08-12T18:28:30.830Z,2.30
2017-08-12T18:31:28.385Z,2.07
2017-08-12T18:34:25.987Z,2.23
2017-08-12T18:37:23.364Z,2.17
2017-08-12T18:40:20.854Z,2.37
2017-08-12T18:43:18.443Z,2.00
2017-08-12T18:46:15.749Z,2.40
2017-08-12T18:49:13.098Z,2.43
2017-08-12T18:52:10.458Z,2.53
2017-08-12T18:55:07.852Z,2.70
2017-08-12T18:58:05.283Z,2.23
2017-08-12T19:01:02.823Z,2.50
2017-08-12T19:04:00.390Z,2.43
2017-08-12T19:06:57.815Z,2.90
2017-08-12T19:09:56.434Z,2.50
2017-08-12T19:12:53.888Z,2.77
2017-08-12T19:15:51.404Z,2.73
2017-08-12T19:18:51.901Z,2.53
2017-08-12T19:21:50.510Z,2.80
2017-08-12T19:24:47.971Z,2.83
2017-08-12T19:27:45.550Z,2.87
2017-08-12T19:30:49.035Z,2.40
2017-08-12T19:33:46.559Z,2.47
2017-08-12T19:36:44.044Z,2.43
2017-08-12T19:39:41.527Z,2.53
2017-08-12T19:42:38.880Z,2.80
2017-08-12T19:45:36.379Z,2.93
2017-08-12T19:48:34.045Z,3.10
2017-08-12T19:51:31.605Z,2.73
2017-08-12T19:54:29.021Z,2.73
2017-08-12T19:57:27.416Z,2.80
2017-08-12T20:00:24.981Z,2.47
2017-08-12T20:03:23.499Z,2.70
2017-08-12T20:06:27.967Z,2.80
2017-08-12T20:09:27.677Z,2.50
2017-08-12T20:12:26.297Z,3.00
2017-08-12T20:15:23.775Z,2.70
2017-08-12T20:18:25.250Z,2.80
2017-08-12T20:21:22.916Z,3.30
2017-08-12T20:24:20.351Z,2.40
2017-08-12T20:27:17.798Z,2.97
2017-08-12T20:30:19.330Z,2.70
2017-08-12T20:33:24.711Z,2.53
2017-08-12T20:36:22.198Z,2.93
2017-08-12T20:39:20.644Z,3.07
2017-08-12T20:42:18.282Z,2.70
2017-08-12T20:45:16.663Z,2.97
2017-08-12T20:48:15.172Z,3.00
2017-08-12T20:51:13.599Z,3.10
2017-08-12T20:54:11.046Z,3.10
2017-08-12T20:57:17.472Z,2.83
2017-08-12T21:00:14.949Z,3.60
2017-08-12T21:03:14.211Z,3.20
2017-08-12T21:06:23.838Z,3.37
2017-08-12T21:09:38.462Z,3.57
2017-08-12T21:12:35.839Z,3.23
2017-08-12T21:15:36.265Z,3.40
2017-08-12T21:18:34.683Z,3.47
2017-08-12T21:21:35.009Z,3.40
2017-08-12T21:24:32.559Z,3.17
2017-08-12T21:27:42.996Z,3.20
2017-08-12T21:30:41.424Z,3.17
2017-08-12T21:33:38.787Z,2.63
2017-08-12T21:36:36.315Z,3.03
2017-08-12T21:39:35.791Z,3.07
2017-08-12T21:42:33.380Z,2.83
2017-08-12T21:45:34.712Z,2.97
2017-08-12T21:48:32.234Z,2.77
2017-08-12T21:51:32.801Z,2.80
2017-08-12T21:54:30.119Z,3.20
2017-08-12T21:57:30.685Z,3.07
2017-08-12T22:00:31.128Z,3.50
2017-08-12T22:03:31.527Z,2.80
2017-08-12T22:06:29.164Z,2.83
2017-08-12T22:09:27.491Z,3.37
2017-08-12T22:12:28.881Z,2.80
2017-08-12T22:15:26.398Z,2.87
2017-08-12T22:18:23.849Z,2.47
2017-08-12T22:21:21.295Z,2.70
2017-08-12T22:24:18.760Z,3.13
2017-08-12T22:27:22.280Z,3.00
2017-08-12T22:30:23.637Z,3.30
2017-08-12T22:33:21.127Z,2.87
2017-08-12T22:36:18.601Z,2.80
2017-08-12T22:39:16.050Z,3.10
2017-08-12T22:42:16.680Z,3.37
2017-08-12T22:45:21.169Z,3.40
2017-08-12T22:48:19.662Z,2.50
2017-08-12T22:51:17.233Z,2.90
2017-08-12T22:54:19.976Z,2.90
2017-08-12T22:57:27.454Z,3.07
2017-08-12T23:00:25.029Z,3.43
2017-08-12T23:03:22.364Z,2.90
2017-08-12T23:06:19.935Z,2.97
2017-08-12T23:09:18.528Z,2.63
2017-08-12T23:12:16.287Z,3.10
2017-08-12T23:15:27.827Z,3.30
2017-08-12T23:18:26.299Z,3.30
2017-08-12T23:21:24.800Z,3.00
2017-08-12T23:24:22.371Z,3.27
2017-08-12T23:27:21.935Z,2.80
2017-08-12T23:30:22.443Z,3.13
2017-08-12T23:33:25.933Z,2.90
2017-08-12T23:36:27.598Z,3.60
2017-08-12T23:39:35.140Z,3.10
2017-08-12T23:42:32.591Z,3.27
2017-08-12T23:45:30.022Z,3.20
2017-08-12T23:48:31.498Z,3.60
2017-08-12T23:51:28.904Z,3.17
2017-08-12T23:54:26.471Z,3.10
2017-08-12T23:57:30.033Z,2.83
